createdAt,value
2023-01-03T00:00:21.572Z,1017.63
2023-01-03T00:01:21.521Z,1017.68
2023-01-03T00:02:21.542Z,1017.60
2023-01-03T00:03:21.508Z,1017.66
2023-01-03T00:04:21.536Z,1017.68
2023-01-03T00:05:21.487Z,1017.72
2023-01-03T00:06:21.485Z,1017.74
2023-01-03T00:07:21.466Z,1017.71
2023-01-03T00:08:21.458Z,1017.73
2023-01-03T00:09:21.463Z,1017.75
2023-01-03T00:10:21.444Z,1017.78
2023-01-03T00:11:21.434Z,1017.80
2023-01-03T00:12:25.562Z,1017.78
2023-01-03T00:13:21.420Z,1017.83
2023-01-03T00:14:21.405Z,1017.79
2023-01-03T00:15:21.401Z,1017.79
2023-01-03T00:16:21.416Z,1017.85
2023-01-03T00:17:21.419Z,1017.82
2023-01-03T00:18:21.373Z,1017.80
2023-01-03T00:19:21.370Z,1017.81
2023-01-03T00:20:21.365Z,1017.87
2023-01-03T00:21:21.349Z,1017.82
2023-01-03T00:22:21.362Z,1017.82
2023-01-03T00:23:21.333Z,1017.88
2023-01-03T00:24:21.328Z,1017.81
2023-01-03T00:25:21.319Z,1017.84
2023-01-03T00:26:21.322Z,1017.90
2023-01-03T00:27:21.297Z,1017.85
2023-01-03T00:28:21.286Z,1017.92
2023-01-03T00:29:21.282Z,1017.95
2023-01-03T00:30:21.269Z,1017.94
2023-01-03T00:31:21.296Z,1018.00
2023-01-03T00:32:21.253Z,1018.02
2023-01-03T00:33:21.244Z,1018.02
2023-01-03T00:34:21.238Z,1018.03
2023-01-03T00:35:21.243Z,1018.06
2023-01-03T00:36:21.219Z,1018.13
2023-01-03T00:37:21.220Z,1018.14
2023-01-03T00:38:21.202Z,1018.04
2023-01-03T00:39:21.197Z,1018.11
2023-01-03T00:40:21.185Z,1018.15
2023-01-03T00:41:21.175Z,1018.13
2023-01-03T00:42:21.165Z,1018.18
2023-01-03T00:43:21.166Z,1018.19
2023-01-03T00:44:21.151Z,1018.21
2023-01-03T00:45:23.416Z,1018.24
2023-01-03T00:46:21.214Z,1018.26
2023-01-03T00:47:21.124Z,1018.27
2023-01-03T00:48:21.115Z,1018.37
2023-01-03T00:49:21.106Z,1018.32
2023-01-03T00:50:21.106Z,1018.42
2023-01-03T00:51:21.088Z,1018.34
2023-01-03T00:52:21.080Z,1018.39
2023-01-03T00:53:21.074Z,1018.36
2023-01-03T00:54:21.065Z,1018.39
2023-01-03T00:55:21.053Z,1018.40
2023-01-03T00:56:21.048Z,1018.34
2023-01-03T00:57:21.040Z,1018.42
2023-01-03T00:58:21.026Z,1018.50
2023-01-03T00:59:21.020Z,1018.59
2023-01-03T01:00:21.007Z,1018.51
2023-01-03T01:01:21.062Z,1018.54
2023-01-03T01:02:21.167Z,1018.52
2023-01-03T01:03:21.168Z,1018.54
2023-01-03T01:04:20.979Z,1018.52
2023-01-03T01:05:20.966Z,1018.55
2023-01-03T01:06:20.954Z,1018.57
2023-01-03T01:07:20.948Z,1018.54
2023-01-03T01:08:20.938Z,1018.51
2023-01-03T01:09:20.931Z,1018.58
2023-01-03T01:10:20.924Z,1018.60
2023-01-03T01:11:20.921Z,1018.57
2023-01-03T01:12:20.901Z,1018.66
2023-01-03T01:13:20.896Z,1018.69
2023-01-03T01:14:20.890Z,1018.67
2023-01-03T01:15:20.876Z,1018.70
2023-01-03T01:16:20.941Z,1018.78
2023-01-03T01:17:23.010Z,1018.72
2023-01-03T01:18:20.849Z,1018.75
2023-01-03T01:19:20.853Z,1018.77
2023-01-03T01:20:20.831Z,1018.89
2023-01-03T01:21:20.826Z,1018.87
2023-01-03T01:22:20.810Z,1018.91
2023-01-03T01:23:20.802Z,1018.89
2023-01-03T01:24:20.794Z,1018.95
2023-01-03T01:25:20.786Z,1018.96
2023-01-03T01:26:20.783Z,1019.01
2023-01-03T01:27:20.769Z,1019.04
2023-01-03T01:28:20.764Z,1019.10
2023-01-03T01:29:20.747Z,1019.05
2023-01-03T01:30:20.737Z,1019.09
2023-01-03T01:31:20.765Z,1019.07
2023-01-03T01:32:20.718Z,1019.07
2023-01-03T01:33:20.712Z,1019.11
2023-01-03T01:34:20.706Z,1019.12
2023-01-03T01:35:20.690Z,1019.15
2023-01-03T01:36:20.689Z,1019.19
2023-01-03T01:37:20.676Z,1019.19
2023-01-03T01:38:20.661Z,1019.22
2023-01-03T01:39:20.658Z,1019.21
2023-01-03T01:40:20.644Z,1019.21
2023-01-03T01:41:20.636Z,1019.25
2023-01-03T01:42:22.347Z,1019.25
2023-01-03T01:43:20.619Z,1019.28
2023-01-03T01:44:20.606Z,1019.22
2023-01-03T01:45:20.598Z,1019.24
2023-01-03T01:46:20.669Z,1019.18
2023-01-03T01:47:20.587Z,1019.23
2023-01-03T01:48:20.575Z,1019.23
2023-01-03T01:49:20.561Z,1019.27
2023-01-03T01:50:20.608Z,1019.24
2023-01-03T01:51:20.542Z,1019.26
2023-01-03T01:52:20.533Z,1019.26
2023-01-03T01:53:20.524Z,1019.28
2023-01-03T01:54:20.514Z,1019.23
2023-01-03T01:55:20.509Z,1019.33
2023-01-03T01:56:20.497Z,1019.30
2023-01-03T01:57:20.482Z,1019.30
2023-01-03T01:58:20.484Z,1019.25
2023-01-03T01:59:20.469Z,1019.18
2023-01-03T02:00:20.458Z,1019.23
2023-01-03T02:01:20.490Z,1019.28
2023-01-03T02:02:20.695Z,1019.33
2023-01-03T02:03:20.489Z,1019.36
2023-01-03T02:04:20.422Z,1019.36
2023-01-03T02:05:20.410Z,1019.37
2023-01-03T02:06:20.401Z,1019.38
2023-01-03T02:07:20.393Z,1019.39
2023-01-03T02:08:20.378Z,1019.42
2023-01-03T02:09:20.371Z,1019.43
2023-01-03T02:10:20.376Z,1019.45
2023-01-03T02:11:20.352Z,1019.40
2023-01-03T02:12:20.342Z,1019.41
2023-01-03T02:13:20.333Z,1019.45
2023-01-03T02:14:20.322Z,1019.46
2023-01-03T02:15:20.319Z,1019.48
2023-01-03T02:16:20.358Z,1019.44
2023-01-03T02:17:20.296Z,1019.51
2023-01-03T02:18:20.284Z,1019.47
2023-01-03T02:19:20.273Z,1019.47
2023-01-03T02:20:20.266Z,1019.53
2023-01-03T02:21:20.508Z,1019.54
2023-01-03T02:22:20.242Z,1019.55
2023-01-03T02:23:20.238Z,1019.56
2023-01-03T02:24:20.223Z,1019.58
2023-01-03T02:25:20.232Z,1019.56
2023-01-03T02:26:20.205Z,1019.62
2023-01-03T02:27:20.195Z,1019.63
2023-01-03T02:28:20.183Z,1019.65
2023-01-03T02:29:20.175Z,1019.64
2023-01-03T02:30:20.182Z,1019.65
2023-01-03T02:31:20.235Z,1019.64
2023-01-03T02:32:20.143Z,1019.69
2023-01-03T02:33:20.137Z,1019.69
2023-01-03T02:34:20.127Z,1019.75
2023-01-03T02:35:20.114Z,1019.76
2023-01-03T02:36:20.105Z,1019.75
2023-01-03T02:37:20.097Z,1019.76
2023-01-03T02:38:20.087Z,1019.75
2023-01-03T02:39:23.632Z,1019.75
2023-01-03T02:40:20.068Z,1019.78
2023-01-03T02:41:20.057Z,1019.77
2023-01-03T02:42:20.045Z,1019.75
2023-01-03T02:43:20.036Z,1019.82
2023-01-03T02:44:20.027Z,1019.79
2023-01-03T02:45:20.032Z,1019.80
2023-01-03T02:46:20.087Z,1019.78
2023-01-03T02:47:19.997Z,1019.79
2023-01-03T02:48:19.997Z,1019.78
2023-01-03T02:49:19.983Z,1019.82
2023-01-03T02:50:19.965Z,1019.82
2023-01-03T02:51:19.963Z,1019.82
2023-01-03T02:52:19.949Z,1019.87
2023-01-03T02:53:19.941Z,1019.84
2023-01-03T02:54:19.935Z,1019.83
2023-01-03T02:55:19.919Z,1019.86
2023-01-03T02:56:19.907Z,1019.83
2023-01-03T02:57:19.900Z,1019.84
2023-01-03T02:58:19.886Z,1019.86
2023-01-03T02:59:19.878Z,1019.85
2023-01-03T03:00:19.867Z,1019.90
2023-01-03T03:01:19.985Z,1019.95
2023-01-03T03:02:20.001Z,1019.96
2023-01-03T03:03:20.027Z,1020.01
2023-01-03T03:04:19.827Z,1020.04
2023-01-03T03:05:19.819Z,1019.99
2023-01-03T03:06:19.805Z,1020.08
2023-01-03T03:07:19.800Z,1020.09
2023-01-03T03:08:19.789Z,1020.11
2023-01-03T03:09:19.784Z,1020.11
2023-01-03T03:10:19.765Z,1020.12
2023-01-03T03:11:19.758Z,1020.12
2023-01-03T03:12:19.746Z,1020.16
2023-01-03T03:13:19.733Z,1020.16
2023-01-03T03:14:19.727Z,1020.14
2023-01-03T03:15:19.716Z,1020.17
2023-01-03T03:16:19.760Z,1020.18
2023-01-03T03:17:19.699Z,1020.20
2023-01-03T03:18:19.694Z,1020.18
2023-01-03T03:19:19.675Z,1020.20
2023-01-03T03:20:19.677Z,1020.23
2023-01-03T03:21:19.662Z,1020.24
2023-01-03T03:22:19.648Z,1020.18
2023-01-03T03:23:19.644Z,1020.21
2023-01-03T03:24:19.623Z,1020.22
2023-01-03T03:25:19.656Z,1020.26
2023-01-03T03:26:19.605Z,1020.29
2023-01-03T03:27:19.598Z,1020.25
2023-01-03T03:28:19.589Z,1020.24
2023-01-03T03:29:19.603Z,1020.27
2023-01-03T03:30:19.561Z,1020.27
2023-01-03T03:31:19.620Z,1020.34
2023-01-03T03:32:19.547Z,1020.27
2023-01-03T03:33:19.539Z,1020.33
2023-01-03T03:34:19.532Z,1020.33
2023-01-03T03:35:19.518Z,1020.30
2023-01-03T03:36:19.505Z,1020.30
2023-01-03T03:37:19.494Z,1020.30
2023-01-03T03:38:19.481Z,1020.30
2023-01-03T03:39:19.469Z,1020.32
2023-01-03T03:40:19.476Z,1020.32
2023-01-03T03:41:19.449Z,1020.33
2023-01-03T03:42:19.448Z,1020.30
2023-01-03T03:43:19.432Z,1020.32
2023-01-03T03:44:19.420Z,1020.33
2023-01-03T03:45:19.444Z,1020.41
2023-01-03T03:46:19.429Z,1020.41
2023-01-03T03:47:19.431Z,1020.38
2023-01-03T03:48:19.379Z,1020.41
2023-01-03T03:49:19.368Z,1020.43
2023-01-03T03:50:19.359Z,1020.41
2023-01-03T03:51:19.351Z,1020.43
2023-01-03T03:52:19.345Z,1020.45
2023-01-03T03:53:19.333Z,1020.45
2023-01-03T03:54:19.316Z,1020.51
2023-01-03T03:55:19.378Z,1020.51
2023-01-03T03:56:19.293Z,1020.53
2023-01-03T03:57:19.289Z,1020.51
2023-01-03T03:58:19.268Z,1020.50
2023-01-03T03:59:19.356Z,1020.49
2023-01-03T04:00:19.263Z,1020.51
2023-01-03T04:01:19.357Z,1020.51
2023-01-03T04:02:19.379Z,1020.57
2023-01-03T04:03:19.313Z,1020.56
2023-01-03T04:04:19.242Z,1020.58
2023-01-03T04:05:19.211Z,1020.59
2023-01-03T04:06:19.199Z,1020.59
2023-01-03T04:07:19.185Z,1020.61
2023-01-03T04:08:19.181Z,1020.61
2023-01-03T04:09:19.162Z,1020.60
2023-01-03T04:10:19.149Z,1020.60
2023-01-03T04:11:19.145Z,1020.60
2023-01-03T04:12:19.138Z,1020.60
2023-01-03T04:13:19.126Z,1020.61
2023-01-03T04:14:19.107Z,1020.60
2023-01-03T04:15:19.099Z,1020.63
2023-01-03T04:16:19.140Z,1020.65
2023-01-03T04:17:19.081Z,1020.67
2023-01-03T04:18:19.076Z,1020.67
2023-01-03T04:19:19.060Z,1020.70
2023-01-03T04:20:19.060Z,1020.72
2023-01-03T04:21:21.161Z,1020.76
2023-01-03T04:22:19.049Z,1020.77
2023-01-03T04:23:19.009Z,1020.79
2023-01-03T04:24:19.005Z,1020.81
2023-01-03T04:25:18.996Z,1020.80
2023-01-03T04:26:19.005Z,1020.82
2023-01-03T04:27:18.981Z,1020.83
2023-01-03T04:28:18.961Z,1020.79
2023-01-03T04:29:18.954Z,1020.83
2023-01-03T04:30:18.970Z,1020.88
2023-01-03T04:31:18.979Z,1020.85
2023-01-03T04:32:18.923Z,1020.86
2023-01-03T04:33:18.909Z,1020.86
2023-01-03T04:34:18.897Z,1020.89
2023-01-03T04:35:18.902Z,1020.89
2023-01-03T04:36:18.894Z,1020.92
2023-01-03T04:37:18.870Z,1020.91
2023-01-03T04:38:18.860Z,1020.99
2023-01-03T04:39:19.044Z,1020.95
2023-01-03T04:40:18.842Z,1020.96
2023-01-03T04:41:18.836Z,1020.97
2023-01-03T04:42:18.810Z,1021.03
2023-01-03T04:43:18.849Z,1021.06
2023-01-03T04:44:18.789Z,1021.07
2023-01-03T04:45:18.789Z,1021.08
2023-01-03T04:46:18.839Z,1021.11
2023-01-03T04:47:18.767Z,1021.11
2023-01-03T04:48:18.755Z,1021.12
2023-01-03T04:49:18.738Z,1021.16
2023-01-03T04:50:18.752Z,1021.17
2023-01-03T04:51:18.718Z,1021.19
2023-01-03T04:52:18.712Z,1021.20
2023-01-03T04:53:18.704Z,1021.23
2023-01-03T04:54:18.686Z,1021.22
2023-01-03T04:55:18.681Z,1021.26
2023-01-03T04:56:18.663Z,1021.23
2023-01-03T04:57:18.654Z,1021.23
2023-01-03T04:58:18.649Z,1021.22
2023-01-03T04:59:18.631Z,1021.25
2023-01-03T05:00:18.628Z,1021.27
2023-01-03T05:01:18.796Z,1021.30
2023-01-03T05:02:18.776Z,1021.34
2023-01-03T05:03:24.043Z,1021.34
2023-01-03T05:04:18.594Z,1021.34
2023-01-03T05:05:18.581Z,1021.37
2023-01-03T05:06:18.561Z,1021.35
2023-01-03T05:07:18.544Z,1021.40
2023-01-03T05:08:18.544Z,1021.40
2023-01-03T05:09:18.548Z,1021.40
2023-01-03T05:10:18.517Z,1021.42
2023-01-03T05:11:18.508Z,1021.44
2023-01-03T05:12:18.494Z,1021.45
2023-01-03T05:13:18.484Z,1021.47
2023-01-03T05:14:18.480Z,1021.47
2023-01-03T05:15:18.473Z,1021.49
2023-01-03T05:16:18.502Z,1021.51
2023-01-03T05:17:18.443Z,1021.54
2023-01-03T05:18:18.447Z,1021.54
2023-01-03T05:19:18.418Z,1021.55
2023-01-03T05:20:18.410Z,1021.58
2023-01-03T05:21:18.415Z,1021.56
2023-01-03T05:22:18.390Z,1021.60
2023-01-03T05:23:18.378Z,1021.66
2023-01-03T05:24:18.365Z,1021.61
2023-01-03T05:25:18.356Z,1021.64
2023-01-03T05:26:18.355Z,1021.64
2023-01-03T05:27:18.337Z,1021.66
2023-01-03T05:28:18.327Z,1021.64
2023-01-03T05:29:18.317Z,1021.63
2023-01-03T05:30:18.303Z,1021.66
2023-01-03T05:31:18.327Z,1021.61
2023-01-03T05:32:18.353Z,1021.62
2023-01-03T05:33:18.274Z,1021.62
2023-01-03T05:34:18.263Z,1021.63
2023-01-03T05:35:18.253Z,1021.63
2023-01-03T05:36:18.244Z,1021.65
2023-01-03T05:37:18.230Z,1021.63
2023-01-03T05:38:18.218Z,1021.67
2023-01-03T05:39:18.207Z,1021.66
2023-01-03T05:40:18.198Z,1021.70
2023-01-03T05:41:18.192Z,1021.69
2023-01-03T05:42:18.175Z,1021.68
2023-01-03T05:43:18.161Z,1021.70
2023-01-03T05:44:18.183Z,1021.71
2023-01-03T05:45:18.144Z,1021.70
2023-01-03T05:46:18.187Z,1021.71
2023-01-03T05:47:18.136Z,1021.74
2023-01-03T05:48:18.111Z,1021.69
2023-01-03T05:49:18.113Z,1021.69
2023-01-03T05:50:18.090Z,1021.71
2023-01-03T05:51:18.081Z,1021.71
2023-01-03T05:52:18.068Z,1021.71
2023-01-03T05:53:18.111Z,1021.77
2023-01-03T05:54:18.059Z,1021.75
2023-01-03T05:55:18.097Z,1021.77
2023-01-03T05:56:18.027Z,1021.80
2023-01-03T05:57:18.016Z,1021.81
2023-01-03T05:58:18.003Z,1021.81
2023-01-03T05:59:17.993Z,1021.84
2023-01-03T06:00:17.986Z,1021.87
2023-01-03T06:01:18.072Z,1021.85
2023-01-03T06:02:18.003Z,1021.87
2023-01-03T06:03:17.955Z,1021.85
2023-01-03T06:04:17.996Z,1021.94
2023-01-03T06:05:17.926Z,1021.95
2023-01-03T06:06:17.926Z,1021.94
2023-01-03T06:07:17.907Z,1021.96
2023-01-03T06:08:17.943Z,1021.95
2023-01-03T06:09:17.889Z,1021.88
2023-01-03T06:10:17.884Z,1021.89
2023-01-03T06:11:17.864Z,1021.88
2023-01-03T06:12:17.854Z,1021.92
2023-01-03T06:13:17.847Z,1021.93
2023-01-03T06:14:17.835Z,1021.86
2023-01-03T06:15:17.821Z,1021.90
2023-01-03T06:16:22.879Z,1021.91
2023-01-03T06:17:17.835Z,1021.90
2023-01-03T06:18:17.789Z,1021.91
2023-01-03T06:19:17.783Z,1021.94
2023-01-03T06:20:17.779Z,1021.95
2023-01-03T06:21:17.753Z,1021.98
2023-01-03T06:22:17.750Z,1021.94
2023-01-03T06:23:17.734Z,1021.98
2023-01-03T06:24:17.725Z,1022.00
2023-01-03T06:25:17.717Z,1021.99
2023-01-03T06:26:17.700Z,1021.97
2023-01-03T06:27:17.711Z,1022.00
2023-01-03T06:28:17.680Z,1022.02
2023-01-03T06:29:17.682Z,1022.04
2023-01-03T06:30:17.654Z,1022.03
2023-01-03T06:31:17.765Z,1022.07
2023-01-03T06:32:17.638Z,1022.05
2023-01-03T06:33:17.624Z,1022.05
2023-01-03T06:34:17.687Z,1022.07
2023-01-03T06:35:17.612Z,1022.06
2023-01-03T06:36:17.597Z,1022.09
2023-01-03T06:37:17.586Z,1022.08
2023-01-03T06:38:17.576Z,1022.12
2023-01-03T06:39:17.564Z,1022.11
2023-01-03T06:40:17.552Z,1022.13
2023-01-03T06:41:17.547Z,1022.09
2023-01-03T06:42:17.525Z,1022.08
2023-01-03T06:43:17.517Z,1022.10
2023-01-03T06:44:17.517Z,1022.11
2023-01-03T06:45:17.507Z,1022.14
2023-01-03T06:46:17.594Z,1022.10
2023-01-03T06:47:17.472Z,1022.13
2023-01-03T06:48:17.507Z,1022.15
2023-01-03T06:49:17.453Z,1022.19
2023-01-03T06:50:17.439Z,1022.15
2023-01-03T06:51:17.431Z,1022.19
2023-01-03T06:52:17.419Z,1022.22
2023-01-03T06:53:17.407Z,1022.24
2023-01-03T06:54:17.395Z,1022.25
2023-01-03T06:55:17.382Z,1022.28
2023-01-03T06:56:17.378Z,1022.30
2023-01-03T06:57:26.394Z,1022.33
2023-01-03T06:58:17.560Z,1022.33
2023-01-03T06:59:17.344Z,1022.32
2023-01-03T07:00:17.339Z,1022.32
2023-01-03T07:01:17.419Z,1022.31
2023-01-03T07:02:17.465Z,1022.37
2023-01-03T07:03:17.301Z,1022.36
2023-01-03T07:04:17.342Z,1022.40
2023-01-03T07:05:17.275Z,1022.38
2023-01-03T07:06:17.265Z,1022.36
2023-01-03T07:07:17.250Z,1022.40
2023-01-03T07:08:17.240Z,1022.39
2023-01-03T07:09:17.235Z,1022.41
2023-01-03T07:10:17.220Z,1022.44
2023-01-03T07:11:17.210Z,1022.45
2023-01-03T07:12:17.200Z,1022.43
2023-01-03T07:13:17.186Z,1022.47
2023-01-03T07:14:17.228Z,1022.50
2023-01-03T07:15:17.167Z,1022.48
2023-01-03T07:16:17.219Z,1022.53
2023-01-03T07:17:17.140Z,1022.49
2023-01-03T07:18:17.130Z,1022.52
2023-01-03T07:19:17.126Z,1022.49
2023-01-03T07:20:17.107Z,1022.49
2023-01-03T07:21:17.100Z,1022.49
2023-01-03T07:22:17.085Z,1022.49
2023-01-03T07:23:17.070Z,1022.54
2023-01-03T07:24:17.064Z,1022.56
2023-01-03T07:25:17.050Z,1022.58
2023-01-03T07:26:17.049Z,1022.61
2023-01-03T07:27:17.035Z,1022.67
2023-01-03T07:28:17.028Z,1022.65
2023-01-03T07:29:17.009Z,1022.69
2023-01-03T07:30:16.995Z,1022.68
2023-01-03T07:31:17.024Z,1022.69
2023-01-03T07:32:16.973Z,1022.73
2023-01-03T07:33:16.962Z,1022.74
2023-01-03T07:34:16.958Z,1022.74
2023-01-03T07:35:16.947Z,1022.75
2023-01-03T07:36:16.946Z,1022.74
2023-01-03T07:37:16.918Z,1022.80
2023-01-03T07:38:16.913Z,1022.80
2023-01-03T07:39:16.893Z,1022.80
2023-01-03T07:40:16.879Z,1022.81
2023-01-03T07:41:16.875Z,1022.81
2023-01-03T07:42:16.857Z,1022.83
2023-01-03T07:43:16.850Z,1022.81
2023-01-03T07:44:16.837Z,1022.86
2023-01-03T07:45:16.829Z,1022.84
2023-01-03T07:46:16.860Z,1022.88
2023-01-03T07:47:16.805Z,1022.91
2023-01-03T07:48:16.793Z,1022.91
2023-01-03T07:49:16.784Z,1022.94
2023-01-03T07:50:16.770Z,1022.95
2023-01-03T07:51:16.774Z,1022.94
2023-01-03T07:52:16.748Z,1022.92
2023-01-03T07:53:16.880Z,1022.93
2023-01-03T07:54:16.725Z,1022.94
2023-01-03T07:55:16.728Z,1022.94
2023-01-03T07:56:16.707Z,1022.95
2023-01-03T07:57:16.700Z,1022.93
2023-01-03T07:58:16.687Z,1022.94
2023-01-03T07:59:16.673Z,1022.92
2023-01-03T08:00:16.665Z,1022.92
2023-01-03T08:01:16.735Z,1022.94
2023-01-03T08:02:16.734Z,1022.95
2023-01-03T08:03:16.689Z,1022.93
2023-01-03T08:04:16.648Z,1022.94
2023-01-03T08:05:16.716Z,1022.96
2023-01-03T08:06:16.597Z,1022.92
2023-01-03T08:07:16.593Z,1022.95
2023-01-03T08:08:16.576Z,1022.97
2023-01-03T08:09:16.565Z,1022.98
2023-01-03T08:10:16.559Z,1023.02
2023-01-03T08:11:16.542Z,1023.04
2023-01-03T08:12:16.541Z,1023.02
2023-01-03T08:13:16.517Z,1023.07
2023-01-03T08:14:20.370Z,1023.08
2023-01-03T08:15:16.498Z,1023.10
2023-01-03T08:16:16.583Z,1023.12
2023-01-03T08:17:16.473Z,1023.11
2023-01-03T08:18:16.461Z,1023.11
2023-01-03T08:19:16.449Z,1023.12
2023-01-03T08:20:16.440Z,1023.14
2023-01-03T08:21:16.426Z,1023.14
2023-01-03T08:22:16.441Z,1023.16
2023-01-03T08:23:16.405Z,1023.21
2023-01-03T08:24:16.397Z,1023.21
2023-01-03T08:25:16.381Z,1023.21
2023-01-03T08:26:16.376Z,1023.23
2023-01-03T08:27:16.382Z,1023.22
2023-01-03T08:28:16.353Z,1023.23
2023-01-03T08:29:16.348Z,1023.25
2023-01-03T08:30:16.334Z,1023.26
2023-01-03T08:31:16.406Z,1023.29
2023-01-03T08:32:16.307Z,1023.27
2023-01-03T08:33:16.296Z,1023.30
2023-01-03T08:34:20.905Z,1023.28
2023-01-03T08:35:16.274Z,1023.31
2023-01-03T08:36:16.261Z,1023.32
2023-01-03T08:37:16.256Z,1023.32
2023-01-03T08:38:16.241Z,1023.36
2023-01-03T08:39:16.231Z,1023.35
2023-01-03T08:40:16.218Z,1023.36
2023-01-03T08:41:16.207Z,1023.36
2023-01-03T08:42:16.200Z,1023.35
2023-01-03T08:43:16.186Z,1023.35
2023-01-03T08:44:16.179Z,1023.37
2023-01-03T08:45:16.165Z,1023.35
2023-01-03T08:46:16.257Z,1023.36
2023-01-03T08:47:16.249Z,1023.38
2023-01-03T08:48:16.128Z,1023.41
2023-01-03T08:49:16.125Z,1023.45
2023-01-03T08:50:16.113Z,1023.42
2023-01-03T08:51:16.101Z,1023.43
2023-01-03T08:52:16.095Z,1023.44
2023-01-03T08:53:16.074Z,1023.45
2023-01-03T08:54:16.063Z,1023.45
2023-01-03T08:55:16.052Z,1023.41
2023-01-03T08:56:16.043Z,1023.47
2023-01-03T08:57:16.030Z,1023.49
2023-01-03T08:58:16.020Z,1023.49
2023-01-03T08:59:16.011Z,1023.50
2023-01-03T09:00:16.009Z,1023.50
2023-01-03T09:01:16.073Z,1023.50
2023-01-03T09:02:16.161Z,1023.54
2023-01-03T09:03:16.212Z,1023.56
2023-01-03T09:04:15.989Z,1023.62
2023-01-03T09:05:15.947Z,1023.63
2023-01-03T09:06:15.934Z,1023.62
2023-01-03T09:07:15.921Z,1023.57
2023-01-03T09:08:15.911Z,1023.61
2023-01-03T09:09:15.899Z,1023.65
2023-01-03T09:10:15.889Z,1023.69
2023-01-03T09:11:15.876Z,1023.67
2023-01-03T09:12:15.873Z,1023.69
2023-01-03T09:13:15.855Z,1023.71
2023-01-03T09:14:15.845Z,1023.66
2023-01-03T09:15:15.837Z,1023.69
2023-01-03T09:16:15.860Z,1023.72
2023-01-03T09:17:15.816Z,1023.77
2023-01-03T09:18:15.809Z,1023.76
2023-01-03T09:19:15.795Z,1023.77
2023-01-03T09:20:15.790Z,1023.80
2023-01-03T09:21:15.769Z,1023.78
2023-01-03T09:22:15.765Z,1023.80
2023-01-03T09:23:15.748Z,1023.80
2023-01-03T09:24:15.739Z,1023.79
2023-01-03T09:25:15.764Z,1023.83
2023-01-03T09:26:15.715Z,1023.84
2023-01-03T09:27:15.703Z,1023.85
2023-01-03T09:28:15.690Z,1023.83
2023-01-03T09:29:15.682Z,1023.84
2023-01-03T09:30:15.674Z,1023.89
2023-01-03T09:31:15.708Z,1023.91
2023-01-03T09:32:15.823Z,1023.90
2023-01-03T09:33:15.635Z,1023.83
2023-01-03T09:34:15.633Z,1023.90
2023-01-03T09:35:15.616Z,1023.92
2023-01-03T09:36:15.615Z,1023.91
2023-01-03T09:37:15.594Z,1023.93
2023-01-03T09:38:15.584Z,1023.93
2023-01-03T09:39:15.573Z,1023.91
2023-01-03T09:40:15.565Z,1023.88
2023-01-03T09:41:15.552Z,1023.89
2023-01-03T09:42:15.541Z,1023.88
2023-01-03T09:43:19.850Z,1023.90
2023-01-03T09:44:15.523Z,1023.89
2023-01-03T09:45:15.509Z,1023.95
2023-01-03T09:46:15.533Z,1023.97
2023-01-03T09:47:15.560Z,1023.94
2023-01-03T09:48:15.488Z,1023.94
2023-01-03T09:49:15.466Z,1023.92
2023-01-03T09:51:05.522Z,1023.93
2023-01-03T09:51:21.182Z,1023.94
2023-01-03T09:52:15.436Z,1023.90
2023-01-03T09:53:15.431Z,1023.88
2023-01-03T09:54:15.415Z,1023.87
2023-01-03T09:55:15.403Z,1023.83
2023-01-03T09:56:15.390Z,1023.86
2023-01-03T09:57:15.380Z,1023.86
2023-01-03T09:58:15.371Z,1023.81
2023-01-03T09:59:15.359Z,1023.80
2023-01-03T10:00:15.355Z,1023.82
2023-01-03T10:01:15.507Z,1023.82
2023-01-03T10:02:15.399Z,1023.86
2023-01-03T10:03:15.360Z,1023.89
2023-01-03T10:04:15.350Z,1023.85
2023-01-03T10:05:15.307Z,1023.88
2023-01-03T10:06:15.315Z,1023.87
2023-01-03T10:07:15.283Z,1023.88
2023-01-03T10:08:15.263Z,1023.87
2023-01-03T10:09:15.254Z,1023.90
2023-01-03T10:10:15.248Z,1023.86
2023-01-03T10:11:15.259Z,1023.86
2023-01-03T10:12:15.228Z,1023.86
2023-01-03T10:13:19.907Z,1023.88
2023-01-03T10:14:15.202Z,1023.89
2023-01-03T10:15:15.183Z,1023.90
2023-01-03T10:16:15.223Z,1023.88
2023-01-03T10:17:15.168Z,1023.85
2023-01-03T10:18:15.161Z,1023.85
2023-01-03T10:19:15.166Z,1023.91
2023-01-03T10:20:15.136Z,1023.88
2023-01-03T10:21:15.135Z,1023.86
2023-01-03T10:22:15.117Z,1023.89
2023-01-03T10:23:15.143Z,1023.89
2023-01-03T10:24:15.101Z,1023.92
2023-01-03T10:25:15.104Z,1023.93
2023-01-03T10:26:15.089Z,1023.91
2023-01-03T10:27:15.077Z,1023.91
2023-01-03T10:28:15.063Z,1023.97
2023-01-03T10:29:15.043Z,1023.99
2023-01-03T10:30:15.030Z,1023.94
2023-01-03T10:31:15.065Z,1023.93
2023-01-03T10:32:15.091Z,1023.96
2023-01-03T10:33:15.003Z,1023.94
2023-01-03T10:34:15.056Z,1023.96
2023-01-03T10:35:15.018Z,1023.99
2023-01-03T10:36:14.970Z,1023.95
2023-01-03T10:37:14.960Z,1023.96
2023-01-03T10:38:14.952Z,1024.02
2023-01-03T10:39:14.939Z,1023.98
2023-01-03T10:40:14.925Z,1023.98
2023-01-03T10:41:14.920Z,1024.00
2023-01-03T10:42:14.905Z,1023.99
2023-01-03T10:43:14.916Z,1024.01
2023-01-03T10:44:14.898Z,1023.99
2023-01-03T10:45:14.881Z,1024.01
2023-01-03T10:46:14.931Z,1024.03
2023-01-03T10:47:14.859Z,1023.99
2023-01-03T10:48:14.849Z,1023.97
2023-01-03T10:49:31.061Z,1023.97
2023-01-03T10:50:14.825Z,1023.98
2023-01-03T10:51:14.815Z,1023.90
2023-01-03T10:52:14.803Z,1023.91
2023-01-03T10:53:14.796Z,1023.92
2023-01-03T10:54:14.782Z,1023.90
2023-01-03T10:55:14.780Z,1023.92
2023-01-03T10:56:14.761Z,1023.95
2023-01-03T10:57:14.755Z,1023.98
2023-01-03T10:58:14.747Z,1024.00
2023-01-03T10:59:14.774Z,1023.98
2023-01-03T11:00:14.722Z,1023.99
2023-01-03T11:01:14.841Z,1024.03
2023-01-03T11:02:14.833Z,1023.97
2023-01-03T11:03:14.961Z,1024.00
2023-01-03T11:04:14.683Z,1024.01
2023-01-03T11:05:14.673Z,1024.02
2023-01-03T11:06:14.667Z,1024.01
2023-01-03T11:07:14.650Z,1024.08
2023-01-03T11:08:14.663Z,1024.03
2023-01-03T11:09:14.632Z,1024.06
2023-01-03T11:10:14.624Z,1024.00
2023-01-03T11:11:14.614Z,1023.99
2023-01-03T11:12:14.602Z,1024.01
2023-01-03T11:13:14.595Z,1024.02
2023-01-03T11:14:14.582Z,1023.98
2023-01-03T11:15:14.571Z,1024.00
2023-01-03T11:16:14.613Z,1023.97
2023-01-03T11:17:14.603Z,1023.94
2023-01-03T11:18:14.557Z,1023.92
2023-01-03T11:19:14.530Z,1023.90
2023-01-03T11:20:14.527Z,1023.95
2023-01-03T11:21:14.531Z,1023.93
2023-01-03T11:22:14.507Z,1023.89
2023-01-03T11:23:14.509Z,1023.89
2023-01-03T11:24:14.482Z,1023.88
2023-01-03T11:25:14.472Z,1023.92
2023-01-03T11:26:14.483Z,1023.94
2023-01-03T11:27:14.478Z,1023.92
2023-01-03T11:28:16.419Z,1023.88
2023-01-03T11:29:14.432Z,1023.91
2023-01-03T11:30:14.429Z,1023.85
2023-01-03T11:31:14.412Z,1023.93
2023-01-03T11:32:14.462Z,1023.95
2023-01-03T11:33:14.396Z,1023.95
2023-01-03T11:34:14.383Z,1023.94
2023-01-03T11:35:23.826Z,1023.92
2023-01-03T11:36:14.363Z,1023.97
2023-01-03T11:37:14.356Z,1024.00
2023-01-03T11:38:14.348Z,1023.95
2023-01-03T11:39:16.339Z,1023.94
2023-01-03T11:40:14.331Z,1023.95
2023-01-03T11:41:14.316Z,1023.88
2023-01-03T11:42:14.303Z,1023.86
2023-01-03T11:43:14.294Z,1023.89
2023-01-03T11:44:14.290Z,1023.93
2023-01-03T11:45:14.279Z,1023.92
2023-01-03T11:46:14.316Z,1023.89
2023-01-03T11:47:14.257Z,1023.88
2023-01-03T11:48:14.251Z,1023.93
2023-01-03T11:49:14.243Z,1023.91
2023-01-03T11:50:14.322Z,1023.88
2023-01-03T11:51:14.214Z,1023.87
2023-01-03T11:52:14.214Z,1023.89
2023-01-03T11:53:14.207Z,1023.89
2023-01-03T11:54:14.191Z,1023.88
2023-01-03T11:55:14.173Z,1023.85
2023-01-03T11:56:14.164Z,1023.89
2023-01-03T11:57:14.157Z,1023.86
2023-01-03T11:58:14.144Z,1023.85
2023-01-03T11:59:14.138Z,1023.92
2023-01-03T12:00:14.121Z,1023.91
2023-01-03T12:01:14.156Z,1023.93
2023-01-03T12:02:14.218Z,1023.94
2023-01-03T12:03:14.195Z,1023.91
2023-01-03T12:04:14.163Z,1023.88
2023-01-03T12:05:14.076Z,1023.90